Fort Lauderdale, FL

9:37 AM EDT on August 29, 2015 (GMT -0400)
Victoria Park | | Change Station
CLOSE
Current Station
Personal Weather Station
Location: Fort Lauderdale, FL
Elevation: 30 ft
Nearby Weather Stations

Elev 30 ft 26.13 °N, 80.13 °W | Updated 12 minutes ago

Mostly Cloudy
Mostly Cloudy
91.2 °F
Feels Like 109 °F
N
2.2
Wind Variable Wind from ESE

Today
High -- | Low -- °F
--% Chance of Precip.
Yesterday
High -- | Low -- °F
Precip. -- in
6:59 AM 7:43 PM
Full, 100% visible
Pressure 30.03 in
Visibility 10.0 miles
Clouds Few 2300 ft
Few 4000 ft
Scattered Clouds 6000 ft
Mostly Cloudy 25000 ft
Heat Index 109 °F
Dew Point 80 °F
Humidity 69%
Rainfall 0.00 in
Snow Depth Not available.
UV 1 out of 12
Pollen 4.60 out of 12
Air Quality Not available.
Flu Activity Not available.
METAR KFLL 291253Z 09011KT 10SM FEW023 FEW040 SCT060 BKN250 30/26 A3003 RMK AO2 SLP168 T03000256
Pressure 30.03 in
Visibility 10.0 miles
Clouds Few 2300 ft
Few 4000 ft
Scattered Clouds 6000 ft
Mostly Cloudy 25000 ft
Heat Index 109 °F
Dew Point 80 °F
Humidity 69%
Rainfall 0.00 in
Snow Depth Not available.
UV 1 out of 12
Pollen 4.60 out of 12
Air Quality Not available.
Flu Activity Not available.
METAR KFLL 291253Z 09011KT 10SM FEW023 FEW040 SCT060 BKN250 30/26 A3003 RMK AO2 SLP168 T03000256
Erika has become very unorganized in the face of strong wind shear in the eastern Caribbean Sea. The storm will pass directly over mountainous Hispaniola today, likely weakening it further. If the storm remains intact, it could reach an area favorable for strengthening before moving onto Florida by early next week. Follow the live blog

10-Day Weather Forecast

×

Almanac

Astronomy

Aug. 29, 2015 Rise Set
Actual Time
Civil Twilight
Nautical Twilight
Astronomical Twilight
Moon
Length of Visible Light
Length of Day
Tomorrow will be .
, % of the Moon is Illuminated

Today's Extremes

State Highs State Lows

Community

WunderPhotos

Upload Photos

1,850,686 photos uploaded!

WunderBlogs® & News

Nearby

Air Quality

  Air Quality AQ Index Pollutant
Not available.

Snow Depth

Station Depth Elevation

Earthquake Activity

City Distance Mag. Time & Date
Minimum magnitude displayed is 2.5.

Coastal Water Temperatures

Place Temperature

Stations

Nearby Weather Stations

Station Location Temp. Windchill Dew Point Humidity Wind Precip. Elev Updated Type